sensor_id;sensor_type;location;lat;lon;timestamp;pressure;altitude;pressure_sealevel;temperature;humidity
75513;BME280;64090;49.770;18.760;2022-12-18T00:02:56;99074.21;;;-5.78;86.84
75513;BME280;64090;49.770;18.760;2022-12-18T00:05:59;99071.89;;;-5.77;86.55
75513;BME280;64090;49.770;18.760;2022-12-18T00:09:02;99080.60;;;-5.74;86.62
75513;BME280;64090;49.770;18.760;2022-12-18T00:12:06;99080.55;;;-5.77;86.58
75513;BME280;64090;49.770;18.760;2022-12-18T00:15:17;99082.48;;;-5.82;86.92
75513;BME280;64090;49.770;18.760;2022-12-18T00:18:20;99084.50;;;-5.84;86.63
75513;BME280;64090;49.770;18.760;2022-12-18T00:21:23;99095.26;;;-5.90;86.34
75513;BME280;64090;49.770;18.760;2022-12-18T00:24:25;99098.61;;;-5.98;86.26
75513;BME280;64090;49.770;18.760;2022-12-18T00:27:28;99102.41;;;-6.10;86.97
75513;BME280;64090;49.770;18.760;2022-12-18T00:30:31;99106.34;;;-6.09;87.29
75513;BME280;64090;49.770;18.760;2022-12-18T00:33:35;99106.84;;;-6.17;87.07
75513;BME280;64090;49.770;18.760;2022-12-18T00:36:40;99110.39;;;-6.19;87.03
75513;BME280;64090;49.770;18.760;2022-12-18T00:39:43;99112.42;;;-6.26;86.92
75513;BME280;64090;49.770;18.760;2022-12-18T00:42:46;99116.58;;;-6.31;86.99
75513;BME280;64090;49.770;18.760;2022-12-18T00:45:58;99113.30;;;-6.35;86.84
75513;BME280;64090;49.770;18.760;2022-12-18T00:49:02;99114.92;;;-6.37;86.90
75513;BME280;64090;49.770;18.760;2022-12-18T00:52:05;99118.81;;;-6.35;87.37
75513;BME280;64090;49.770;18.760;2022-12-18T00:55:08;99125.23;;;-6.32;87.35
75513;BME280;64090;49.770;18.760;2022-12-18T00:58:13;99128.84;;;-6.36;87.11
75513;BME280;64090;49.770;18.760;2022-12-18T01:01:16;99133.54;;;-6.45;87.10
75513;BME280;64090;49.770;18.760;2022-12-18T01:04:19;99138.87;;;-6.48;87.06
75513;BME280;64090;49.770;18.760;2022-12-18T01:07:22;99148.75;;;-6.50;87.14
75513;BME280;64090;49.770;18.760;2022-12-18T01:10:25;99150.23;;;-6.52;87.16
75513;BME280;64090;49.770;18.760;2022-12-18T01:13:28;99152.64;;;-6.52;87.11
75513;BME280;64090;49.770;18.760;2022-12-18T01:16:31;99155.20;;;-6.51;87.43
75513;BME280;64090;49.770;18.760;2022-12-18T01:19:34;99149.33;;;-6.51;87.32
75513;BME280;64090;49.770;18.760;2022-12-18T01:22:37;99151.58;;;-6.47;87.05
75513;BME280;64090;49.770;18.760;2022-12-18T01:25:40;99152.05;;;-6.42;86.33
75513;BME280;64090;49.770;18.760;2022-12-18T01:28:43;99152.64;;;-6.40;86.01
75513;BME280;64090;49.770;18.760;2022-12-18T01:31:46;99156.84;;;-6.37;86.26
75513;BME280;64090;49.770;18.760;2022-12-18T01:34:49;99158.79;;;-6.34;86.26
75513;BME280;64090;49.770;18.760;2022-12-18T01:37:55;99169.95;;;-6.29;86.41
75513;BME280;64090;49.770;18.760;2022-12-18T01:40:59;99167.46;;;-6.27;86.39
75513;BME280;64090;49.770;18.760;2022-12-18T01:47:55;99172.31;;;-6.36;86.77
75513;BME280;64090;49.770;18.760;2022-12-18T01:50:59;99174.10;;;-6.42;86.80
75513;BME280;64090;49.770;18.760;2022-12-18T01:54:02;99179.64;;;-6.46;86.76
75513;BME280;64090;49.770;18.760;2022-12-18T01:57:05;99180.75;;;-6.48;86.85
75513;BME280;64090;49.770;18.760;2022-12-18T02:00:20;99185.13;;;-6.49;87.15
75513;BME280;64090;49.770;18.760;2022-12-18T02:03:23;99189.30;;;-6.50;86.94
75513;BME280;64090;49.770;18.760;2022-12-18T02:06:36;99191.50;;;-6.49;86.63
75513;BME280;64090;49.770;18.760;2022-12-18T02:09:54;99198.09;;;-6.46;87.03
75513;BME280;64090;49.770;18.760;2022-12-18T02:13:45;99195.75;;;-6.44;87.23
75513;BME280;64090;49.770;18.760;2022-12-18T02:16:54;99202.80;;;-6.39;87.38
75513;BME280;64090;49.770;18.760;2022-12-18T02:20:23;99213.34;;;-6.31;87.23
75513;BME280;64090;49.770;18.760;2022-12-18T02:26:50;99214.77;;;-6.24;87.11
75513;BME280;64090;49.770;18.760;2022-12-18T02:29:55;99218.03;;;-6.24;86.92
75513;BME280;64090;49.770;18.760;2022-12-18T02:33:01;99218.29;;;-6.22;86.85
75513;BME280;64090;49.770;18.760;2022-12-18T02:36:08;99221.61;;;-6.23;86.83
75513;BME280;64090;49.770;18.760;2022-12-18T02:39:13;99219.89;;;-6.23;86.81
75513;BME280;64090;49.770;18.760;2022-12-18T02:42:19;99219.74;;;-6.19;86.83
75513;BME280;64090;49.770;18.760;2022-12-18T02:45:22;99219.42;;;-6.11;86.79
75513;BME280;64090;49.770;18.760;2022-12-18T02:48:32;99224.66;;;-6.04;86.67
75513;BME280;64090;49.770;18.760;2022-12-18T02:51:56;99223.42;;;-6.00;86.55
75513;BME280;64090;49.770;18.760;2022-12-18T02:55:17;99222.68;;;-5.99;86.73
75513;BME280;64090;49.770;18.760;2022-12-18T03:01:41;99233.70;;;-5.98;86.40
75513;BME280;64090;49.770;18.760;2022-12-18T03:05:16;99232.75;;;-5.93;86.40
75513;BME280;64090;49.770;18.760;2022-12-18T03:08:28;99238.75;;;-5.95;86.39
75513;BME280;64090;49.770;18.760;2022-12-18T03:11:34;99242.23;;;-5.96;86.34
75513;BME280;64090;49.770;18.760;2022-12-18T03:15:10;99249.20;;;-5.97;86.32
75513;BME280;64090;49.770;18.760;2022-12-18T03:18:27;99254.81;;;-5.95;86.27
75513;BME280;64090;49.770;18.760;2022-12-18T03:21:37;99253.69;;;-5.97;86.31
75513;BME280;64090;49.770;18.760;2022-12-18T03:24:42;99258.88;;;-5.97;86.30
75513;BME280;64090;49.770;18.760;2022-12-18T03:27:49;99260.61;;;-5.94;86.45
75513;BME280;64090;49.770;18.760;2022-12-18T03:30:56;99251.86;;;-5.87;86.39
75513;BME280;64090;49.770;18.760;2022-12-18T03:34:06;99254.49;;;-5.84;86.02
75513;BME280;64090;49.770;18.760;2022-12-18T03:37:12;99259.96;;;-5.87;86.10
75513;BME280;64090;49.770;18.760;2022-12-18T03:40:15;99262.27;;;-5.88;85.88
75513;BME280;64090;49.770;18.760;2022-12-18T03:43:52;99262.77;;;-5.88;85.90
75513;BME280;64090;49.770;18.760;2022-12-18T03:47:07;99267.52;;;-5.90;85.75
75513;BME280;64090;49.770;18.760;2022-12-18T03:56:40;99267.05;;;-5.99;85.74
75513;BME280;64090;49.770;18.760;2022-12-18T03:59:46;99274.05;;;-6.01;85.82
75513;BME280;64090;49.770;18.760;2022-12-18T04:02:54;99283.32;;;-6.00;86.07
75513;BME280;64090;49.770;18.760;2022-12-18T04:05:59;99289.33;;;-5.95;85.97
75513;BME280;64090;49.770;18.760;2022-12-18T04:09:04;99289.03;;;-5.93;86.00
75513;BME280;64090;49.770;18.760;2022-12-18T04:12:08;99286.96;;;-5.89;85.99
75513;BME280;64090;49.770;18.760;2022-12-18T04:15:12;99291.77;;;-5.84;85.90
75513;BME280;64090;49.770;18.760;2022-12-18T04:18:15;99303.61;;;-5.82;85.76
75513;BME280;64090;49.770;18.760;2022-12-18T04:21:18;99305.41;;;-5.84;85.55
75513;BME280;64090;49.770;18.760;2022-12-18T04:24:22;99307.20;;;-5.90;85.39
75513;BME280;64090;49.770;18.760;2022-12-18T04:27:24;99304.58;;;-5.97;85.26
75513;BME280;64090;49.770;18.760;2022-12-18T04:30:27;99308.84;;;-6.00;85.50
75513;BME280;64090;49.770;18.760;2022-12-18T04:33:30;99315.55;;;-6.03;85.22
75513;BME280;64090;49.770;18.760;2022-12-18T04:36:33;99322.77;;;-6.07;85.44
75513;BME280;64090;49.770;18.760;2022-12-18T04:39:36;99324.57;;;-6.09;85.74
75513;BME280;64090;49.770;18.760;2022-12-18T04:42:40;99325.63;;;-6.09;85.64
75513;BME280;64090;49.770;18.760;2022-12-18T04:45:43;99330.25;;;-6.08;85.66
75513;BME280;64090;49.770;18.760;2022-12-18T04:48:46;99332.96;;;-6.07;85.63
75513;BME280;64090;49.770;18.760;2022-12-18T04:51:49;99338.91;;;-6.05;85.95
75513;BME280;64090;49.770;18.760;2022-12-18T04:54:52;99340.23;;;-6.03;86.20
75513;BME280;64090;49.770;18.760;2022-12-18T04:57:55;99343.83;;;-6.03;85.85
75513;BME280;64090;49.770;18.760;2022-12-18T05:00:58;99348.60;;;-6.06;85.29
75513;BME280;64090;49.770;18.760;2022-12-18T05:04:01;99356.05;;;-6.02;85.45
75513;BME280;64090;49.770;18.760;2022-12-18T05:07:04;99361.38;;;-5.97;85.69
75513;BME280;64090;49.770;18.760;2022-12-18T05:10:08;99353.33;;;-5.95;85.59
75513;BME280;64090;49.770;18.760;2022-12-18T05:13:11;99354.61;;;-5.93;85.19
75513;BME280;64090;49.770;18.760;2022-12-18T05:16:15;99361.61;;;-5.95;84.85
75513;BME280;64090;49.770;18.760;2022-12-18T05:19:18;99367.84;;;-5.99;85.08
75513;BME280;64090;49.770;18.760;2022-12-18T05:22:21;99367.25;;;-5.98;85.16
75513;BME280;64090;49.770;18.760;2022-12-18T05:25:24;99371.41;;;-5.94;85.05
75513;BME280;64090;49.770;18.760;2022-12-18T05:28:29;99373.90;;;-5.95;84.82
75513;BME280;64090;49.770;18.760;2022-12-18T05:31:32;99373.80;;;-5.97;85.21
75513;BME280;64090;49.770;18.760;2022-12-18T05:34:41;99379.31;;;-5.97;85.35
75513;BME280;64090;49.770;18.760;2022-12-18T05:37:44;99376.82;;;-5.95;85.54
75513;BME280;64090;49.770;18.760;2022-12-18T05:40:48;99374.30;;;-5.93;85.25
75513;BME280;64090;49.770;18.760;2022-12-18T05:43:51;99377.52;;;-5.92;85.17
75513;BME280;64090;49.770;18.760;2022-12-18T05:46:54;99381.23;;;-5.90;85.35
75513;BME280;64090;49.770;18.760;2022-12-18T05:49:56;99380.04;;;-5.90;85.30
75513;BME280;64090;49.770;18.760;2022-12-18T05:52:59;99383.34;;;-5.94;85.10
75513;BME280;64090;49.770;18.760;2022-12-18T05:56:04;99385.43;;;-5.99;84.96
75513;BME280;64090;49.770;18.760;2022-12-18T05:59:07;99386.09;;;-6.07;84.95
75513;BME280;64090;49.770;18.760;2022-12-18T06:02:10;99394.50;;;-6.15;85.33
75513;BME280;64090;49.770;18.760;2022-12-18T06:05:13;99395.87;;;-6.19;85.21
75513;BME280;64090;49.770;18.760;2022-12-18T06:08:16;99396.99;;;-6.22;85.31
75513;BME280;64090;49.770;18.760;2022-12-18T06:11:22;99398.06;;;-6.18;85.55
75513;BME280;64090;49.770;18.760;2022-12-18T06:14:27;99401.00;;;-6.14;85.46
75513;BME280;64090;49.770;18.760;2022-12-18T06:17:31;99398.56;;;-6.13;85.17
75513;BME280;64090;49.770;18.760;2022-12-18T06:20:34;99403.36;;;-6.12;85.13
75513;BME280;64090;49.770;18.760;2022-12-18T06:23:39;99407.97;;;-6.06;85.72
75513;BME280;64090;49.770;18.760;2022-12-18T06:26:42;99406.77;;;-6.06;84.44
75513;BME280;64090;49.770;18.760;2022-12-18T06:29:45;99404.60;;;-6.13;83.53
75513;BME280;64090;49.770;18.760;2022-12-18T06:32:49;99401.16;;;-6.18;84.47
75513;BME280;64090;49.770;18.760;2022-12-18T06:36:11;99407.11;;;-6.20;84.88
75513;BME280;64090;49.770;18.760;2022-12-18T06:39:14;99411.70;;;-6.23;84.86
75513;BME280;64090;49.770;18.760;2022-12-18T06:42:17;99409.73;;;-6.21;84.98
75513;BME280;64090;49.770;18.760;2022-12-18T06:45:21;99419.45;;;-6.18;85.38
75513;BME280;64090;49.770;18.760;2022-12-18T06:48:24;99429.03;;;-6.11;84.96
75513;BME280;64090;49.770;18.760;2022-12-18T06:51:26;99427.92;;;-6.04;84.61
75513;BME280;64090;49.770;18.760;2022-12-18T06:54:29;99428.73;;;-5.99;84.47
75513;BME280;64090;49.770;18.760;2022-12-18T06:57:32;99430.14;;;-5.95;84.20
75513;BME280;64090;49.770;18.760;2022-12-18T07:00:35;99432.44;;;-5.93;83.91
75513;BME280;64090;49.770;18.760;2022-12-18T07:03:39;99427.13;;;-5.98;83.58
75513;BME280;64090;49.770;18.760;2022-12-18T07:06:43;99432.86;;;-5.99;83.88
75513;BME280;64090;49.770;18.760;2022-12-18T07:09:46;99444.69;;;-5.97;83.67
75513;BME280;64090;49.770;18.760;2022-12-18T07:12:49;99454.80;;;-5.99;83.79
75513;BME280;64090;49.770;18.760;2022-12-18T07:15:52;99458.47;;;-5.96;84.28
75513;BME280;64090;49.770;18.760;2022-12-18T07:18:55;99464.16;;;-5.92;84.12
75513;BME280;64090;49.770;18.760;2022-12-18T07:21:58;99466.56;;;-5.87;84.31
75513;BME280;64090;49.770;18.760;2022-12-18T07:25:01;99464.48;;;-5.87;83.66
75513;BME280;64090;49.770;18.760;2022-12-18T07:28:04;99467.36;;;-5.85;83.83
75513;BME280;64090;49.770;18.760;2022-12-18T07:31:11;99474.38;;;-5.84;83.54
75513;BME280;64090;49.770;18.760;2022-12-18T07:34:14;99483.90;;;-5.84;83.51
75513;BME280;64090;49.770;18.760;2022-12-18T07:37:17;99491.87;;;-5.72;84.09
75513;BME280;64090;49.770;18.760;2022-12-18T07:40:20;99490.52;;;-5.64;83.79
75513;BME280;64090;49.770;18.760;2022-12-18T07:43:23;99497.06;;;-5.59;83.23
75513;BME280;64090;49.770;18.760;2022-12-18T07:46:26;99494.91;;;-5.49;83.53
75513;BME280;64090;49.770;18.760;2022-12-18T07:49:29;99496.83;;;-5.40;83.48
75513;BME280;64090;49.770;18.760;2022-12-18T07:52:32;99497.85;;;-5.31;83.36
75513;BME280;64090;49.770;18.760;2022-12-18T07:55:35;99498.63;;;-5.20;82.63
75513;BME280;64090;49.770;18.760;2022-12-18T07:58:59;99501.42;;;-5.08;81.68
75513;BME280;64090;49.770;18.760;2022-12-18T08:02:02;99504.10;;;-5.02;81.31
75513;BME280;64090;49.770;18.760;2022-12-18T08:05:05;99500.92;;;-4.92;81.37
75513;BME280;64090;49.770;18.760;2022-12-18T08:08:08;99506.31;;;-4.80;80.63
75513;BME280;64090;49.770;18.760;2022-12-18T08:11:11;99501.64;;;-4.72;80.12
75513;BME280;64090;49.770;18.760;2022-12-18T08:14:14;99503.45;;;-4.62;80.35
75513;BME280;64090;49.770;18.760;2022-12-18T08:17:19;99503.81;;;-4.46;80.21
75513;BME280;64090;49.770;18.760;2022-12-18T08:20:22;99500.95;;;-4.28;80.09
75513;BME280;64090;49.770;18.760;2022-12-18T08:23:24;99505.67;;;-4.09;79.05
75513;BME280;64090;49.770;18.760;2022-12-18T08:26:31;99508.72;;;-3.97;77.29
75513;BME280;64090;49.770;18.760;2022-12-18T08:29:33;99518.32;;;-3.83;77.49
75513;BME280;64090;49.770;18.760;2022-12-18T08:32:36;99518.10;;;-3.71;76.88
75513;BME280;64090;49.770;18.760;2022-12-18T08:35:40;99517.21;;;-3.56;76.55
75513;BME280;64090;49.770;18.760;2022-12-18T08:38:47;99516.68;;;-3.37;76.11
75513;BME280;64090;49.770;18.760;2022-12-18T08:41:50;99521.16;;;-3.22;75.75
75513;BME280;64090;49.770;18.760;2022-12-18T08:45:12;99525.35;;;-3.12;76.23
75513;BME280;64090;49.770;18.760;2022-12-18T08:48:15;99527.76;;;-3.01;74.62
75513;BME280;64090;49.770;18.760;2022-12-18T08:51:23;99528.13;;;-2.83;73.84
75513;BME280;64090;49.770;18.760;2022-12-18T08:54:26;99536.19;;;-2.78;73.89
75513;BME280;64090;49.770;18.760;2022-12-18T08:57:29;99541.30;;;-2.97;72.22
75513;BME280;64090;49.770;18.760;2022-12-18T09:00:32;99541.55;;;-3.06;72.88
75513;BME280;64090;49.770;18.760;2022-12-18T09:03:35;99543.52;;;-3.00;71.81
75513;BME280;64090;49.770;18.760;2022-12-18T09:06:38;99542.86;;;-2.90;73.22
75513;BME280;64090;49.770;18.760;2022-12-18T09:09:41;99544.05;;;-2.65;74.89
75513;BME280;64090;49.770;18.760;2022-12-18T09:12:43;99538.92;;;-2.43;73.20
75513;BME280;64090;49.770;18.760;2022-12-18T09:15:51;99542.75;;;-2.32;71.95
75513;BME280;64090;49.770;18.760;2022-12-18T09:18:55;99553.45;;;-2.28;72.71
75513;BME280;64090;49.770;18.760;2022-12-18T09:22:02;99561.84;;;-2.46;70.72
75513;BME280;64090;49.770;18.760;2022-12-18T09:25:04;99561.98;;;-2.70;72.70
75513;BME280;64090;49.770;18.760;2022-12-18T09:28:18;99553.48;;;-2.88;72.74
75513;BME280;64090;49.770;18.760;2022-12-18T09:31:23;99547.42;;;-3.16;73.01
75513;BME280;64090;49.770;18.760;2022-12-18T09:34:26;99547.05;;;-3.31;73.45
75513;BME280;64090;49.770;18.760;2022-12-18T09:37:29;99554.19;;;-3.35;74.95
75513;BME280;64090;49.770;18.760;2022-12-18T09:40:36;99551.88;;;-3.34;75.23
75513;BME280;64090;49.770;18.760;2022-12-18T09:43:55;99546.05;;;-3.28;75.02
75513;BME280;64090;49.770;18.760;2022-12-18T09:47:13;99538.63;;;-3.21;75.24
75513;BME280;64090;49.770;18.760;2022-12-18T09:53:31;99545.07;;;-3.07;73.97
75513;BME280;64090;49.770;18.760;2022-12-18T09:56:40;99550.05;;;-3.02;74.40
75513;BME280;64090;49.770;18.760;2022-12-18T09:59:47;99554.23;;;-2.96;73.27
75513;BME280;64090;49.770;18.760;2022-12-18T10:03:00;99555.45;;;-3.03;72.44
75513;BME280;64090;49.770;18.760;2022-12-18T10:06:14;99551.58;;;-3.09;72.69
75513;BME280;64090;49.770;18.760;2022-12-18T10:12:32;99541.09;;;-3.18;73.10
75513;BME280;64090;49.770;18.760;2022-12-18T10:25:53;99533.05;;;-3.35;72.26
75513;BME280;64090;49.770;18.760;2022-12-18T10:28:58;99524.89;;;-3.35;72.01
75513;BME280;64090;49.770;18.760;2022-12-18T10:32:13;99518.00;;;-3.35;72.79
75513;BME280;64090;49.770;18.760;2022-12-18T10:35:23;99502.50;;;-3.27;72.96
75513;BME280;64090;49.770;18.760;2022-12-18T10:38:29;99502.91;;;-3.14;73.84
75513;BME280;64090;49.770;18.760;2022-12-18T10:41:33;99514.53;;;-3.03;73.03
75513;BME280;64090;49.770;18.760;2022-12-18T10:44:36;99522.68;;;-3.00;72.86
75513;BME280;64090;49.770;18.760;2022-12-18T10:47:47;99517.50;;;-2.97;72.61
75513;BME280;64090;49.770;18.760;2022-12-18T10:50:51;99513.64;;;-2.96;72.39
75513;BME280;64090;49.770;18.760;2022-12-18T10:54:21;99502.70;;;-2.99;71.60
75513;BME280;64090;49.770;18.760;2022-12-18T10:57:35;99494.22;;;-3.06;71.55
75513;BME280;64090;49.770;18.760;2022-12-18T11:00:39;99490.64;;;-3.08;72.31
75513;BME280;64090;49.770;18.760;2022-12-18T11:03:44;99491.80;;;-3.06;72.70
75513;BME280;64090;49.770;18.760;2022-12-18T11:07:05;99492.17;;;-3.03;72.39
75513;BME280;64090;49.770;18.760;2022-12-18T11:10:17;99487.45;;;-3.06;71.47
75513;BME280;64090;49.770;18.760;2022-12-18T11:13:22;99481.05;;;-3.17;70.71
75513;BME280;64090;49.770;18.760;2022-12-18T11:16:27;99483.23;;;-3.26;71.25
75513;BME280;64090;49.770;18.760;2022-12-18T11:19:36;99484.40;;;-3.39;67.99
75513;BME280;64090;49.770;18.760;2022-12-18T11:22:39;99487.96;;;-3.49;70.20
75513;BME280;64090;49.770;18.760;2022-12-18T11:25:51;99486.13;;;-3.58;70.20
75513;BME280;64090;49.770;18.760;2022-12-18T11:29:09;99485.02;;;-3.63;70.99
75513;BME280;64090;49.770;18.760;2022-12-18T11:32:43;99472.45;;;-3.65;71.71
75513;BME280;64090;49.770;18.760;2022-12-18T11:35:50;99471.47;;;-3.66;71.92
75513;BME280;64090;49.770;18.760;2022-12-18T11:38:55;99478.59;;;-3.74;71.77
75513;BME280;64090;49.770;18.760;2022-12-18T11:42:09;99483.75;;;-3.81;72.54
75513;BME280;64090;49.770;18.760;2022-12-18T11:45:25;99491.70;;;-3.84;72.02
75513;BME280;64090;49.770;18.760;2022-12-18T11:48:33;99494.67;;;-3.85;71.95
75513;BME280;64090;49.770;18.760;2022-12-18T11:51:53;99495.16;;;-3.84;72.67
75513;BME280;64090;49.770;18.760;2022-12-18T11:55:01;99493.08;;;-3.81;72.21
75513;BME280;64090;49.770;18.760;2022-12-18T11:58:17;99495.52;;;-3.84;71.52
75513;BME280;64090;49.770;18.760;2022-12-18T12:01:48;99501.11;;;-3.89;72.03
75513;BME280;64090;49.770;18.760;2022-12-18T12:05:05;99508.38;;;-3.93;72.20
75513;BME280;64090;49.770;18.760;2022-12-18T12:11:39;99515.23;;;-4.03;72.22
75513;BME280;64090;49.770;18.760;2022-12-18T12:14:59;99519.13;;;-4.08;72.41
75513;BME280;64090;49.770;18.760;2022-12-18T12:21:38;99525.58;;;-4.14;72.56
75513;BME280;64090;49.770;18.760;2022-12-18T12:27:58;99530.63;;;-4.42;72.94
75513;BME280;64090;49.770;18.760;2022-12-18T12:34:48;99522.27;;;-4.53;73.03
75513;BME280;64090;49.770;18.760;2022-12-18T12:41:25;99536.27;;;-4.61;73.28
75513;BME280;64090;49.770;18.760;2022-12-18T12:44:52;99536.77;;;-4.64;73.25
75513;BME280;64090;49.770;18.760;2022-12-18T12:47:59;99537.83;;;-4.69;73.14
75513;BME280;64090;49.770;18.760;2022-12-18T12:51:11;99537.27;;;-4.77;73.03
75513;BME280;64090;49.770;18.760;2022-12-18T12:54:18;99530.33;;;-4.88;73.32
75513;BME280;64090;49.770;18.760;2022-12-18T13:00:46;99541.04;;;-5.01;74.07
75513;BME280;64090;49.770;18.760;2022-12-18T13:03:55;99543.77;;;-5.04;74.34
75513;BME280;64090;49.770;18.760;2022-12-18T13:07:14;99545.20;;;-5.05;74.47
75513;BME280;64090;49.770;18.760;2022-12-18T13:13:48;99541.04;;;-5.14;74.22
75513;BME280;64090;49.770;18.760;2022-12-18T13:20:33;99547.14;;;-5.32;74.13
75513;BME280;64090;49.770;18.760;2022-12-18T13:23:40;99552.80;;;-5.40;74.00
75513;BME280;64090;49.770;18.760;2022-12-18T13:26:44;99554.70;;;-5.49;73.95
75513;BME280;64090;49.770;18.760;2022-12-18T13:29:47;99555.41;;;-5.59;74.00
75513;BME280;64090;49.770;18.760;2022-12-18T13:36:28;99544.08;;;-5.83;74.30
75513;BME280;64090;49.770;18.760;2022-12-18T13:39:33;99549.11;;;-5.93;74.71
75513;BME280;64090;49.770;18.760;2022-12-18T13:42:41;99549.00;;;-6.03;74.98
75513;BME280;64090;49.770;18.760;2022-12-18T13:49:20;99548.98;;;-6.22;75.38
75513;BME280;64090;49.770;18.760;2022-12-18T13:52:36;99548.05;;;-6.35;75.48
75513;BME280;64090;49.770;18.760;2022-12-18T13:55:46;99546.11;;;-6.48;75.25
75513;BME280;64090;49.770;18.760;2022-12-18T13:59:15;99550.72;;;-6.62;75.35
75513;BME280;64090;49.770;18.760;2022-12-18T14:02:28;99552.54;;;-6.80;75.34
75513;BME280;64090;49.770;18.760;2022-12-18T14:05:36;99557.46;;;-6.99;75.23
75513;BME280;64090;49.770;18.760;2022-12-18T14:08:45;99555.84;;;-7.18;75.70
75513;BME280;64090;49.770;18.760;2022-12-18T14:11:50;99548.09;;;-7.35;76.40
75513;BME280;64090;49.770;18.760;2022-12-18T14:14:53;99546.96;;;-7.48;76.88
75513;BME280;64090;49.770;18.760;2022-12-18T14:21:29;99552.94;;;-7.70;77.13
75513;BME280;64090;49.770;18.760;2022-12-18T14:24:35;99558.80;;;-7.81;77.44
75513;BME280;64090;49.770;18.760;2022-12-18T14:27:43;99562.38;;;-7.92;77.57
75513;BME280;64090;49.770;18.760;2022-12-18T14:30:46;99562.86;;;-8.03;77.67
75513;BME280;64090;49.770;18.760;2022-12-18T14:33:49;99567.70;;;-8.17;77.67
75513;BME280;64090;49.770;18.760;2022-12-18T14:36:53;99568.95;;;-8.30;77.79
75513;BME280;64090;49.770;18.760;2022-12-18T14:40:00;99567.90;;;-8.41;77.93
75513;BME280;64090;49.770;18.760;2022-12-18T14:43:13;99565.66;;;-8.54;78.21
75513;BME280;64090;49.770;18.760;2022-12-18T14:46:29;99566.64;;;-8.72;79.36
75513;BME280;64090;49.770;18.760;2022-12-18T14:49:33;99566.05;;;-8.90;78.80
75513;BME280;64090;49.770;18.760;2022-12-18T14:52:38;99573.30;;;-9.05;78.98
75513;BME280;64090;49.770;18.760;2022-12-18T14:55:46;99566.16;;;-9.16;79.19
75513;BME280;64090;49.770;18.760;2022-12-18T14:58:53;99566.91;;;-9.26;79.25
75513;BME280;64090;49.770;18.760;2022-12-18T15:08:35;99571.73;;;-9.56;79.28
75513;BME280;64090;49.770;18.760;2022-12-18T15:14:42;99580.46;;;-9.72;79.25
75513;BME280;64090;49.770;18.760;2022-12-18T15:17:45;99583.74;;;-9.81;79.40
75513;BME280;64090;49.770;18.760;2022-12-18T15:20:54;99582.64;;;-9.93;79.57
75513;BME280;64090;49.770;18.760;2022-12-18T15:23:58;99587.78;;;-10.02;79.81
75513;BME280;64090;49.770;18.760;2022-12-18T15:27:01;99588.20;;;-10.06;80.07
75513;BME280;64090;49.770;18.760;2022-12-18T15:33:26;99587.83;;;-10.13;80.40
75513;BME280;64090;49.770;18.760;2022-12-18T15:36:29;99595.31;;;-10.19;80.52
75513;BME280;64090;49.770;18.760;2022-12-18T15:39:32;99598.32;;;-10.23;80.52
75513;BME280;64090;49.770;18.760;2022-12-18T15:42:35;99606.45;;;-10.27;80.83
75513;BME280;64090;49.770;18.760;2022-12-18T15:45:57;99611.14;;;-10.30;80.91
75513;BME280;64090;49.770;18.760;2022-12-18T15:49:02;99614.65;;;-10.34;80.85
75513;BME280;64090;49.770;18.760;2022-12-18T15:52:05;99618.72;;;-10.41;81.02
75513;BME280;64090;49.770;18.760;2022-12-18T15:55:13;99623.14;;;-10.49;81.26
75513;BME280;64090;49.770;18.760;2022-12-18T15:58:35;99624.67;;;-10.48;81.80
75513;BME280;64090;49.770;18.760;2022-12-18T16:01:38;99624.21;;;-10.42;82.07
75513;BME280;64090;49.770;18.760;2022-12-18T16:04:44;99622.90;;;-10.44;81.97
75513;BME280;64090;49.770;18.760;2022-12-18T16:07:48;99623.84;;;-10.50;81.82
75513;BME280;64090;49.770;18.760;2022-12-18T16:10:51;99627.40;;;-10.47;82.67
75513;BME280;64090;49.770;18.760;2022-12-18T16:13:54;99631.56;;;-10.60;82.15
75513;BME280;64090;49.770;18.760;2022-12-18T16:16:59;99632.41;;;-10.91;82.00
75513;BME280;64090;49.770;18.760;2022-12-18T16:20:03;99633.61;;;-11.14;82.16
75513;BME280;64090;49.770;18.760;2022-12-18T16:23:06;99640.17;;;-11.29;82.41
75513;BME280;64090;49.770;18.760;2022-12-18T16:26:09;99647.68;;;-11.41;82.58
75513;BME280;64090;49.770;18.760;2022-12-18T16:29:12;99646.68;;;-11.43;82.69
75513;BME280;64090;49.770;18.760;2022-12-18T16:32:19;99637.98;;;-11.44;82.84
75513;BME280;64090;49.770;18.760;2022-12-18T16:35:25;99644.17;;;-11.47;83.03
75513;BME280;64090;49.770;18.760;2022-12-18T16:38:28;99642.42;;;-11.56;82.90
75513;BME280;64090;49.770;18.760;2022-12-18T16:41:32;99638.95;;;-11.66;82.87
75513;BME280;64090;49.770;18.760;2022-12-18T16:44:35;99641.23;;;-11.71;82.83
75513;BME280;64090;49.770;18.760;2022-12-18T16:47:39;99637.51;;;-11.73;82.79
75513;BME280;64090;49.770;18.760;2022-12-18T16:50:42;99631.72;;;-11.75;82.75
75513;BME280;64090;49.770;18.760;2022-12-18T16:53:45;99633.30;;;-11.78;82.59
75513;BME280;64090;49.770;18.760;2022-12-18T16:56:50;99626.21;;;-11.85;82.53
75513;BME280;64090;49.770;18.760;2022-12-18T16:59:53;99613.94;;;-12.00;82.25
75513;BME280;64090;49.770;18.760;2022-12-18T17:03:01;99611.72;;;-12.14;82.20
75513;BME280;64090;49.770;18.760;2022-12-18T17:06:05;99605.54;;;-12.27;82.37
75513;BME280;64090;49.770;18.760;2022-12-18T17:09:12;99601.40;;;-12.40;82.35
75513;BME280;64090;49.770;18.760;2022-12-18T17:12:18;99596.88;;;-12.49;82.49
75513;BME280;64090;49.770;18.760;2022-12-18T17:15:21;99590.95;;;-12.53;82.53
75513;BME280;64090;49.770;18.760;2022-12-18T17:18:24;99585.17;;;-12.55;82.37
75513;BME280;64090;49.770;18.760;2022-12-18T17:21:28;99582.27;;;-12.55;82.63
75513;BME280;64090;49.770;18.760;2022-12-18T17:24:32;99575.24;;;-12.52;82.75
75513;BME280;64090;49.770;18.760;2022-12-18T17:27:37;99571.39;;;-12.42;83.19
75513;BME280;64090;49.770;18.760;2022-12-18T17:30:40;99571.11;;;-12.33;83.20
75513;BME280;64090;49.770;18.760;2022-12-18T17:33:43;99568.83;;;-12.29;83.19
75513;BME280;64090;49.770;18.760;2022-12-18T17:36:46;99573.05;;;-12.24;83.48
75513;BME280;64090;49.770;18.760;2022-12-18T17:39:49;99574.52;;;-12.18;83.75